Time;durP1;ratioP1;P1;durP2;ratioP2;P2;SDS_P1;SDS_P2;PMS_P1;PMS_P2;Temp;Humidity;BMP_temperature;BMP_pressure;BME280_temperature;BME280_humidity;BME280_pressure;Samples;Min_cycle;Max_cycle;Signal;HPM_P1;HPM_P2
2023/04/18 00:01:39;;;;;;;16.33;9.10;;;;;;;;;;5023152;28;20141;-63
2023/04/18 00:04:06;;;;;;;16.80;9.35;;;;;;;;;;5022669;28;20130;-64
2023/04/18 00:06:32;;;;;;;14.50;9.52;;;;;;;;;;5023294;28;20472;-63
2023/04/18 00:08:58;;;;;;;15.25;8.98;;;;;;;;;;5021325;28;20862;-64
2023/04/18 00:11:24;;;;;;;16.15;8.73;;;;;;;;;;5021808;28;20056;-63
2023/04/18 00:13:50;;;;;;;14.15;8.70;;;;;;;;;;5023004;28;20049;-63
2023/04/18 00:16:16;;;;;;;22.83;9.85;;;;;;;;;;5023097;28;20050;-63
2023/04/18 00:18:42;;;;;;;13.90;9.00;;;;;;;;;;5022666;28;20042;-63
2023/04/18 00:21:09;;;;;;;13.55;8.43;;;;;;;;;;5026487;28;20362;-63
2023/04/18 00:23:36;;;;;;;15.48;8.10;;;;;;;;;;5027062;28;20139;-64
2023/04/18 00:26:02;;;;;;;15.13;8.80;;;;;;;;;;5025544;28;20053;-63
2023/04/18 00:28:28;;;;;;;14.48;8.55;;;;;;;;;;5026109;28;20049;-64
2023/04/18 00:30:54;;;;;;;17.48;9.10;;;;;;;;;;5026568;28;20121;-62
2023/04/18 00:33:20;;;;;;;15.13;8.20;;;;;;;;;;5026825;28;20045;-62
2023/04/18 00:35:46;;;;;;;14.38;8.73;;;;;;;;;;5025773;28;20073;-62
2023/04/18 00:38:12;;;;;;;13.18;8.27;;;;;;;;;;5026552;28;20052;-62
2023/04/18 00:40:39;;;;;;;15.38;8.00;;;;;;;;;;5026501;28;20052;-63
2023/04/18 00:43:07;;;;;;;13.88;7.70;;;;;;;;;;5026630;28;20402;-62
2023/04/18 00:45:33;;;;;;;15.88;8.45;;;;;;;;;;5026230;28;20048;-62
2023/04/18 00:47:59;;;;;;;15.90;9.02;;;;;;;;;;5024270;28;20407;-62
2023/04/18 00:50:26;;;;;;;16.52;8.27;;;;;;;;;;5025970;28;20076;-62
2023/04/18 00:52:53;;;;;;;18.50;9.70;;;;;;;;;;5026128;28;20556;-62
2023/04/18 00:55:19;;;;;;;16.17;8.63;;;;;;;;;;5026225;28;20091;-62
2023/04/18 00:57:45;;;;;;;17.67;10.00;;;;;;;;;;5025997;28;20477;-62
2023/04/18 01:00:12;;;;;;;29.88;12.05;;;;;;;;;;5026569;28;20079;-62
2023/04/18 01:05:07;;;;;;;12.57;7.90;;;;;;;;;;4991124;28;20049;-60
2023/04/18 01:07:36;;;;;;;16.25;8.85;;;;;;;;;;4997975;28;20054;-60
2023/04/18 01:10:02;;;;;;;;;;;;;;;;;;5002069;28;20050;-61
2023/04/18 01:12:28;;;;;;;14.95;8.23;;;;;;;;;;4998994;28;19933;-61
2023/04/18 01:14:54;;;;;;;13.82;8.23;;;;;;;;;;5006742;28;20042;-61
2023/04/18 01:17:22;;;;;;;15.18;8.23;;;;;;;;;;5006053;28;20049;-60
2023/04/18 01:19:48;;;;;;;13.93;8.38;;;;;;;;;;5005363;28;20053;-61
2023/04/18 01:22:14;;;;;;;15.55;8.70;;;;;;;;;;5006061;28;20360;-61
2023/04/18 01:24:41;;;;;;;14.13;8.77;;;;;;;;;;5005570;28;20502;-61
2023/04/18 01:27:13;;;;;;;16.00;8.63;;;;;;;;;;5005906;28;20597;-61
2023/04/18 01:29:42;;;;;;;14.23;7.90;;;;;;;;;;5005772;28;20053;-61
2023/04/18 01:32:08;;;;;;;14.10;8.32;;;;;;;;;;5005845;28;20501;-61
2023/04/18 01:34:34;;;;;;;13.65;8.75;;;;;;;;;;5004896;28;20451;-61
2023/04/18 01:37:01;;;;;;;14.15;8.18;;;;;;;;;;5005363;28;20045;-61
2023/04/18 01:39:27;;;;;;;14.85;8.27;;;;;;;;;;5005988;28;20041;-61
2023/04/18 01:41:54;;;;;;;16.30;8.43;;;;;;;;;;5005735;28;20034;-61
2023/04/18 01:44:20;;;;;;;16.15;8.10;;;;;;;;;;5005812;28;20196;-60
2023/04/18 01:46:46;;;;;;;15.70;8.80;;;;;;;;;;5005639;28;20506;-61
2023/04/18 01:49:12;;;;;;;17.98;8.32;;;;;;;;;;5005013;28;20110;-60
2023/04/18 01:51:38;;;;;;;14.40;8.23;;;;;;;;;;5005288;28;20112;-60
2023/04/18 01:54:04;;;;;;;18.17;8.60;;;;;;;;;;5004203;28;20042;-61
2023/04/18 01:56:30;;;;;;;13.25;8.25;;;;;;;;;;5005682;28;20049;-61
2023/04/18 01:58:57;;;;;;;13.80;8.23;;;;;;;;;;5005699;28;20038;-60
2023/04/18 02:01:23;;;;;;;17.38;7.78;;;;;;;;;;5005321;28;20133;-61
2023/04/18 02:03:49;;;;;;;13.73;7.47;;;;;;;;;;5004315;28;20076;-61
2023/04/18 02:06:15;;;;;;;16.95;8.15;;;;;;;;;;5005320;28;20054;-61
2023/04/18 02:08:41;;;;;;;16.08;7.85;;;;;;;;;;5004951;28;20045;-61
2023/04/18 02:11:07;;;;;;;20.45;8.45;;;;;;;;;;5004643;28;20554;-61
2023/04/18 02:13:34;;;;;;;12.43;8.05;;;;;;;;;;5005536;28;20077;-61
2023/04/18 02:16:00;;;;;;;14.68;8.57;;;;;;;;;;5004961;28;20049;-61
2023/04/18 02:18:26;;;;;;;15.77;8.38;;;;;;;;;;5004939;28;20116;-61
2023/04/18 02:20:52;;;;;;;14.43;8.70;;;;;;;;;;5004559;28;20121;-61
2023/04/18 02:23:18;;;;;;;15.60;8.32;;;;;;;;;;5004893;28;20064;-60
2023/04/18 02:25:45;;;;;;;18.77;8.57;;;;;;;;;;5005119;28;20077;-60
2023/04/18 02:28:11;;;;;;;17.25;8.60;;;;;;;;;;5005003;28;20049;-61
2023/04/18 02:30:37;;;;;;;13.23;8.27;;;;;;;;;;5004863;28;20126;-61
2023/04/18 02:33:03;;;;;;;16.52;8.98;;;;;;;;;;5004655;28;20080;-61
2023/04/18 02:35:30;;;;;;;17.75;9.07;;;;;;;;;;5004561;28;20382;-61
2023/04/18 02:37:56;;;;;;;18.05;8.77;;;;;;;;;;5004711;28;20054;-61
2023/04/18 02:40:22;;;;;;;18.80;8.57;;;;;;;;;;4997234;28;20049;-61
2023/04/18 02:42:48;;;;;;;15.90;8.80;;;;;;;;;;5001079;28;20500;-61
2023/04/18 02:45:15;;;;;;;18.17;9.13;;;;;;;;;;5004714;28;20088;-61
2023/04/18 02:47:41;;;;;;;15.48;8.88;;;;;;;;;;5004531;28;20057;-61
2023/04/18 02:50:08;;;;;;;15.48;9.27;;;;;;;;;;5003914;28;20050;-61
2023/04/18 02:52:34;;;;;;;21.40;9.48;;;;;;;;;;5003179;28;20497;-62
2023/04/18 02:55:00;;;;;;;18.27;9.25;;;;;;;;;;5004638;28;20046;-61
2023/04/18 02:57:26;;;;;;;15.75;8.73;;;;;;;;;;5004823;28;20079;-61
2023/04/18 02:59:52;;;;;;;17.25;9.27;;;;;;;;;;5003656;28;20453;-61
2023/04/18 03:02:19;;;;;;;18.05;9.02;;;;;;;;;;5003939;28;20053;-61
2023/04/18 03:04:46;;;;;;;16.65;8.75;;;;;;;;;;5003035;28;20124;-61
2023/04/18 03:07:12;;;;;;;16.00;8.93;;;;;;;;;;5004222;28;20053;-61
2023/04/18 03:09:38;;;;;;;14.90;9.20;;;;;;;;;;5003824;28;20049;-61
2023/04/18 03:12:04;;;;;;;19.63;9.27;;;;;;;;;;5004045;28;20050;-61
2023/04/18 03:14:30;;;;;;;17.20;8.88;;;;;;;;;;5002440;28;20336;-62
2023/04/18 03:16:57;;;;;;;13.73;8.13;;;;;;;;;;5004652;28;20038;-61
2023/04/18 03:19:23;;;;;;;15.20;8.85;;;;;;;;;;5003298;28;20049;-62
2023/04/18 03:21:49;;;;;;;15.40;8.20;;;;;;;;;;5003389;28;20041;-61
2023/04/18 03:24:15;;;;;;;19.60;9.00;;;;;;;;;;5003356;28;20050;-62
2023/04/18 03:26:41;;;;;;;14.30;8.27;;;;;;;;;;5004076;28;20038;-62
2023/04/18 03:29:07;;;;;;;19.55;8.25;;;;;;;;;;5004311;28;20509;-62
2023/04/18 03:31:34;;;;;;;16.83;8.43;;;;;;;;;;5004004;28;20048;-62
2023/04/18 03:34:00;;;;;;;16.33;8.77;;;;;;;;;;5002228;28;20411;-62
2023/04/18 03:36:27;;;;;;;16.70;9.15;;;;;;;;;;5004407;28;20041;-62
2023/04/18 03:38:54;;;;;;;14.95;8.55;;;;;;;;;;5004369;28;20044;-62
2023/04/18 03:41:20;;;;;;;14.45;8.52;;;;;;;;;;5003536;28;20042;-61
2023/04/18 03:43:46;;;;;;;13.02;7.95;;;;;;;;;;5003810;28;20064;-62
2023/04/18 03:46:12;;;;;;;15.60;8.18;;;;;;;;;;5004145;28;20037;-61
2023/04/18 03:48:38;;;;;;;14.60;8.52;;;;;;;;;;5002791;28;20052;-61
2023/04/18 03:51:05;;;;;;;19.30;8.95;;;;;;;;;;5004050;28;20042;-61
2023/04/18 03:53:31;;;;;;;15.30;8.43;;;;;;;;;;5004034;28;20046;-62
2023/04/18 03:55:58;;;;;;;17.13;8.93;;;;;;;;;;5007502;28;20038;-62
2023/04/18 03:58:24;;;;;;;16.70;8.05;;;;;;;;;;5008302;28;20096;-61
2023/04/18 04:00:51;;;;;;;17.83;8.43;;;;;;;;;;5005524;28;20069;-61
2023/04/18 04:03:17;;;;;;;12.68;7.97;;;;;;;;;;5006760;28;20112;-61
2023/04/18 04:05:43;;;;;;;12.55;7.72;;;;;;;;;;5007589;28;20056;-61
2023/04/18 04:08:09;;;;;;;18.10;8.50;;;;;;;;;;5007656;28;20034;-61
2023/04/18 04:10:35;;;;;;;17.60;8.57;;;;;;;;;;5007442;28;20057;-62
2023/04/18 04:13:01;;;;;;;14.07;7.78;;;;;;;;;;5006883;28;20425;-62
2023/04/18 04:15:28;;;;;;;14.68;8.27;;;;;;;;;;5007524;28;20518;-61
2023/04/18 04:17:54;;;;;;;14.32;8.10;;;;;;;;;;5006290;28;20535;-63
2023/04/18 04:20:22;;;;;;;15.93;8.52;;;;;;;;;;5007130;28;20128;-62
2023/04/18 04:22:55;;;;;;;16.20;8.45;;;;;;;;;;5007085;28;20045;-65
2023/04/18 04:25:27;;;;;;;16.40;8.57;;;;;;;;;;5007888;28;20038;-62
2023/04/18 04:27:54;;;;;;;17.23;8.60;;;;;;;;;;5006983;28;20049;-62
2023/04/18 04:30:21;;;;;;;15.40;8.98;;;;;;;;;;5007372;28;20080;-62
2023/04/18 04:32:47;;;;;;;15.02;8.32;;;;;;;;;;5006695;28;20042;-62
2023/04/18 04:35:13;;;;;;;13.38;8.15;;;;;;;;;;5006742;28;20141;-61
2023/04/18 04:37:40;;;;;;;16.70;8.80;;;;;;;;;;5006461;28;20478;-61
2023/04/18 04:40:08;;;;;;;14.63;7.68;;;;;;;;;;5007085;28;20279;-62
2023/04/18 04:42:34;;;;;;;16.63;8.82;;;;;;;;;;5007144;28;20099;-62
2023/04/18 04:45:01;;;;;;;13.55;8.07;;;;;;;;;;5006772;28;20042;-62
2023/04/18 04:47:28;;;;;;;18.92;9.07;;;;;;;;;;5007227;28;20049;-63
2023/04/18 04:49:54;;;;;;;14.73;8.60;;;;;;;;;;5006485;28;20048;-62
2023/04/18 04:52:20;;;;;;;17.25;8.55;;;;;;;;;;5005537;28;20064;-62
2023/04/18 04:54:47;;;;;;;15.85;8.85;;;;;;;;;;5006717;28;20129;-63
2023/04/18 04:57:14;;;;;;;15.45;7.82;;;;;;;;;;5006600;28;20034;-63
2023/04/18 04:59:40;;;;;;;17.30;8.90;;;;;;;;;;5006286;28;20107;-63
2023/04/18 05:02:06;;;;;;;15.18;8.52;;;;;;;;;;5006737;28;20696;-64
2023/04/18 05:04:32;;;;;;;16.60;7.90;;;;;;;;;;5005445;28;20148;-64
2023/04/18 05:06:58;;;;;;;13.85;8.07;;;;;;;;;;5005743;28;20108;-64
2023/04/18 05:09:25;;;;;;;16.65;7.50;;;;;;;;;;5006413;28;20041;-64
2023/04/18 05:11:51;;;;;;;18.73;7.88;;;;;;;;;;5005710;28;20510;-63
2023/04/18 05:14:19;;;;;;;15.88;8.65;;;;;;;;;;5006000;28;20089;-63
2023/04/18 05:16:45;;;;;;;13.50;8.18;;;;;;;;;;5006281;28;20093;-64
2023/04/18 05:19:11;;;;;;;15.82;8.00;;;;;;;;;;5005149;28;20042;-64
2023/04/18 05:21:37;;;;;;;14.68;8.07;;;;;;;;;;5006399;28;20053;-64
2023/04/18 05:24:03;;;;;;;15.02;8.60;;;;;;;;;;5006092;28;20129;-63
2023/04/18 05:26:29;;;;;;;16.13;8.52;;;;;;;;;;5006304;28;20038;-66
2023/04/18 05:28:56;;;;;;;17.23;10.10;;;;;;;;;;5005773;28;20534;-63
2023/04/18 05:31:22;;;;;;;17.30;8.98;;;;;;;;;;5003726;28;20050;-64
2023/04/18 05:33:48;;;;;;;15.70;9.07;;;;;;;;;;5004609;28;20480;-63
2023/04/18 05:36:15;;;;;;;19.58;9.15;;;;;;;;;;4999567;28;20069;-64
2023/04/18 05:38:41;;;;;;;13.35;8.20;;;;;;;;;;4996776;28;20038;-64
2023/04/18 05:41:07;;;;;;;13.30;8.18;;;;;;;;;;5003728;28;20053;-65
2023/04/18 05:43:33;;;;;;;15.05;7.82;;;;;;;;;;5006146;28;20476;-62
2023/04/18 05:45:59;;;;;;;12.82;7.55;;;;;;;;;;5004882;28;20104;-63
2023/04/18 05:48:25;;;;;;;15.65;8.45;;;;;;;;;;5011178;28;20056;-62
2023/04/18 05:50:52;;;;;;;17.23;8.65;;;;;;;;;;5005754;28;20037;-62
2023/04/18 05:53:18;;;;;;;17.60;7.85;;;;;;;;;;5006364;28;20138;-63
2023/04/18 05:55:45;;;;;;;15.82;8.63;;;;;;;;;;5004294;28;20046;-62
2023/04/18 05:58:11;;;;;;;15.45;7.95;;;;;;;;;;5005649;28;20049;-62
2023/04/18 06:00:37;;;;;;;18.48;9.38;;;;;;;;;;5005121;28;20125;-62
2023/04/18 06:03:03;;;;;;;15.60;8.13;;;;;;;;;;5004836;28;20034;-61
2023/04/18 06:05:30;;;;;;;17.65;8.13;;;;;;;;;;5005122;28;20056;-62
2023/04/18 06:07:56;;;;;;;13.35;8.00;;;;;;;;;;5005261;28;20188;-62
2023/04/18 06:10:22;;;;;;;14.80;8.57;;;;;;;;;;5005301;28;20053;-61
2023/04/18 06:12:48;;;;;;;13.10;8.13;;;;;;;;;;5004171;28;20432;-61
2023/04/18 06:15:14;;;;;;;19.65;8.63;;;;;;;;;;5005652;28;20396;-61
2023/04/18 06:17:40;;;;;;;16.70;8.65;;;;;;;;;;5003283;28;20042;-62
2023/04/18 06:20:07;;;;;;;14.27;8.27;;;;;;;;;;5005671;28;20041;-61
2023/04/18 06:22:33;;;;;;;14.60;8.15;;;;;;;;;;5004809;28;20125;-62
2023/04/18 06:24:59;;;;;;;16.52;8.43;;;;;;;;;;5004642;28;20073;-64
2023/04/18 06:27:26;;;;;;;15.55;7.63;;;;;;;;;;5005282;28;20061;-61
2023/04/18 06:29:52;;;;;;;16.58;11.27;;;;;;;;;;5004234;28;20455;-61
2023/04/18 06:32:19;;;;;;;15.40;9.55;;;;;;;;;;5005085;28;20046;-61
2023/04/18 06:34:45;;;;;;;14.43;8.73;;;;;;;;;;5003882;28;20474;-61
2023/04/18 06:37:11;;;;;;;16.02;8.93;;;;;;;;;;5004748;28;20129;-61
2023/04/18 06:39:37;;;;;;;18.23;9.10;;;;;;;;;;5004314;28;20995;-61
2023/04/18 06:42:03;;;;;;;15.10;8.82;;;;;;;;;;5004824;28;20506;-61
2023/04/18 06:44:31;;;;;;;18.90;9.45;;;;;;;;;;5004571;28;20058;-61
2023/04/18 06:46:57;;;;;;;18.17;9.27;;;;;;;;;;5004918;28;20081;-61
2023/04/18 06:49:24;;;;;;;14.93;8.48;;;;;;;;;;5004167;28;20064;-61
2023/04/18 06:51:50;;;;;;;16.15;8.63;;;;;;;;;;5004456;28;20100;-61
2023/04/18 06:54:16;;;;;;;13.63;8.02;;;;;;;;;;5004420;28;20128;-61
2023/04/18 06:56:42;;;;;;;14.80;8.13;;;;;;;;;;5004772;28;20038;-61
2023/04/18 06:59:08;;;;;;;14.13;8.75;;;;;;;;;;5003215;28;20041;-61
2023/04/18 07:01:40;;;;;;;16.55;8.35;;;;;;;;;;5004644;28;20049;-61
2023/04/18 07:04:06;;;;;;;16.38;8.32;;;;;;;;;;5003118;28;20080;-61
2023/04/18 07:06:32;;;;;;;13.52;8.25;;;;;;;;;;5004421;28;20054;-61
2023/04/18 07:09:00;;;;;;;17.00;9.32;;;;;;;;;;5004101;28;20089;-62
2023/04/18 07:11:26;;;;;;;15.25;8.43;;;;;;;;;;5004213;28;20496;-61
2023/04/18 07:13:52;;;;;;;15.07;8.25;;;;;;;;;;5004217;28;20478;-61
2023/04/18 07:16:19;;;;;;;14.98;7.82;;;;;;;;;;5004397;28;20052;-61
2023/04/18 07:18:45;;;;;;;16.42;7.80;;;;;;;;;;5003607;28;20073;-61
2023/04/18 07:21:11;;;;;;;12.65;7.95;;;;;;;;;;5004427;28;20121;-62
2023/04/18 07:23:37;;;;;;;20.75;7.85;;;;;;;;;;5003498;28;20048;-61
2023/04/18 07:26:04;;;;;;;18.73;8.48;;;;;;;;;;5004814;28;20046;-61
2023/04/18 07:28:31;;;;;;;14.25;7.38;;;;;;;;;;5003899;28;20660;-61
2023/04/18 07:30:58;;;;;;;13.30;7.40;;;;;;;;;;5004331;28;20041;-61
2023/04/18 07:33:24;;;;;;;14.85;7.50;;;;;;;;;;5003887;28;20096;-61
2023/04/18 07:35:51;;;;;;;16.00;7.72;;;;;;;;;;5003951;28;20042;-61
2023/04/18 07:38:18;;;;;;;15.77;7.97;;;;;;;;;;5004250;28;20049;-62
2023/04/18 07:40:45;;;;;;;11.20;7.20;;;;;;;;;;5003696;28;20511;-61
2023/04/18 07:43:11;;;;;;;14.05;7.78;;;;;;;;;;5003950;28;20034;-61
2023/04/18 07:45:37;;;;;;;12.80;7.38;;;;;;;;;;5003946;28;20594;-61
2023/04/18 07:48:04;;;;;;;10.88;6.82;;;;;;;;;;5002987;28;20121;-61
2023/04/18 07:50:30;;;;;;;13.52;6.63;;;;;;;;;;5003909;28;20045;-61
2023/04/18 07:52:56;;;;;;;11.48;6.22;;;;;;;;;;5004186;28;20479;-61
2023/04/18 07:55:22;;;;;;;10.82;6.75;;;;;;;;;;5004256;28;20061;-61
2023/04/18 07:57:49;;;;;;;11.45;6.70;;;;;;;;;;5003618;28;20045;-61
2023/04/18 08:00:16;;;;;;;12.30;6.68;;;;;;;;;;5003552;28;20049;-61
2023/04/18 08:02:42;;;;;;;17.15;6.18;;;;;;;;;;5002861;28;20054;-61
2023/04/18 08:05:09;;;;;;;12.88;7.32;;;;;;;;;;5003714;28;20104;-62
2023/04/18 08:07:35;;;;;;;13.13;6.88;;;;;;;;;;5003650;28;20395;-61
2023/04/18 08:10:02;;;;;;;10.55;6.53;;;;;;;;;;5004109;28;20077;-61
2023/04/18 08:12:28;;;;;;;14.35;7.13;;;;;;;;;;5003833;28;20046;-61
2023/04/18 08:14:54;;;;;;;14.23;6.47;;;;;;;;;;5004039;28;20081;-61
2023/04/18 08:17:22;;;;;;;11.77;7.03;;;;;;;;;;5002892;28;20045;-61
2023/04/18 08:19:48;;;;;;;12.38;6.72;;;;;;;;;;5003219;28;20057;-61
2023/04/18 08:22:14;;;;;;;13.93;7.57;;;;;;;;;;5003897;28;20053;-61
2023/04/18 08:24:40;;;;;;;12.60;7.20;;;;;;;;;;5003400;28;20171;-61
2023/04/18 08:27:07;;;;;;;14.93;7.38;;;;;;;;;;5003810;28;20046;-61
2023/04/18 08:29:33;;;;;;;14.50;7.75;;;;;;;;;;5003807;28;20057;-61
2023/04/18 08:31:59;;;;;;;14.50;7.88;;;;;;;;;;5003316;28;20057;-61
2023/04/18 08:34:25;;;;;;;12.57;7.93;;;;;;;;;;5003171;28;20133;-60
2023/04/18 08:36:51;;;;;;;14.75;8.23;;;;;;;;;;5003631;28;20037;-61
2023/04/18 08:39:17;;;;;;;15.70;7.63;;;;;;;;;;5002885;28;20095;-61
2023/04/18 08:41:46;;;;;;;15.32;7.82;;;;;;;;;;5004603;28;20042;-61
2023/04/18 08:44:13;;;;;;;16.42;7.40;;;;;;;;;;5007107;28;20042;-61
2023/04/18 08:46:39;;;;;;;12.10;7.65;;;;;;;;;;5006633;28;20484;-61
2023/04/18 08:49:05;;;;;;;14.85;7.60;;;;;;;;;;5006205;28;20495;-61
2023/04/18 08:51:32;;;;;;;15.23;8.20;;;;;;;;;;5007257;28;20057;-61
2023/04/18 08:54:03;;;;;;;11.95;7.53;;;;;;;;;;5006547;28;20052;-61
2023/04/18 08:56:30;;;;;;;13.88;8.23;;;;;;;;;;5006162;28;20507;-62
2023/04/18 08:58:59;;;;;;;15.60;7.10;;;;;;;;;;5006846;28;20547;-61
2023/04/18 09:01:26;;;;;;;;;;;;;;;;;;5007228;28;20053;-61
2023/04/18 09:03:53;;;;;;;11.70;6.23;;;;;;;;;;5005622;28;19926;-61
2023/04/18 09:06:20;;;;;;;11.70;5.90;;;;;;;;;;5006819;28;20057;-61
2023/04/18 09:08:57;;;;;;;10.15;6.13;;;;;;;;;;5006685;28;20092;-65
2023/04/18 09:11:27;;;;;;;11.02;7.45;;;;;;;;;;5005658;28;20061;-63
2023/04/18 09:13:55;;;;;;;13.20;6.88;;;;;;;;;;5006379;28;20483;-61
2023/04/18 09:16:21;;;;;;;11.57;6.80;;;;;;;;;;5006686;28;20046;-61
2023/04/18 09:19:07;;;;;;;12.02;7.03;;;;;;;;;;5005587;28;20851;-61
2023/04/18 09:21:34;;;;;;;11.50;6.80;;;;;;;;;;5006701;28;20042;-61
2023/04/18 09:24:16;;;;;;;8.90;5.97;;;;;;;;;;5005497;28;20046;-61
2023/04/18 09:26:42;;;;;;;9.63;6.50;;;;;;;;;;5006262;28;20121;-61
2023/04/18 09:29:08;;;;;;;11.13;5.80;;;;;;;;;;5006133;28;20065;-61
2023/04/18 09:31:34;;;;;;;12.60;6.43;;;;;;;;;;5006205;28;20077;-61
2023/04/18 09:34:02;;;;;;;11.73;6.82;;;;;;;;;;5005163;28;20084;-61
2023/04/18 09:36:29;;;;;;;10.38;5.95;;;;;;;;;;5006407;28;20081;-62
2023/04/18 09:38:56;;;;;;;13.43;6.55;;;;;;;;;;5005873;28;20061;-61
2023/04/18 09:41:22;;;;;;;10.88;5.70;;;;;;;;;;5006262;28;20048;-61
2023/04/18 09:43:48;;;;;;;12.23;6.45;;;;;;;;;;5005897;28;20436;-61
2023/04/18 09:46:16;;;;;;;11.65;6.57;;;;;;;;;;5005909;28;20038;-62
2023/04/18 09:48:42;;;;;;;11.35;6.80;;;;;;;;;;5004643;28;20052;-61
2023/04/18 09:51:10;;;;;;;15.23;6.63;;;;;;;;;;5005853;28;20077;-61
2023/04/18 09:53:38;;;;;;;11.85;6.80;;;;;;;;;;5005673;28;20602;-61
2023/04/18 09:56:06;;;;;;;10.13;6.75;;;;;;;;;;5004113;28;20482;-61
2023/04/18 09:58:34;;;;;;;12.07;6.83;;;;;;;;;;5005843;28;20060;-61
2023/04/18 10:01:00;;;;;;;11.05;6.45;;;;;;;;;;5005353;28;20033;-61
2023/04/18 10:03:31;;;;;;;10.98;6.43;;;;;;;;;;5004975;28;20455;-61
2023/04/18 10:05:57;;;;;;;12.38;6.97;;;;;;;;;;5005404;28;20076;-61
2023/04/18 10:08:23;;;;;;;10.85;6.40;;;;;;;;;;5006206;28;20068;-61
2023/04/18 10:10:50;;;;;;;11.38;6.45;;;;;;;;;;5005277;28;20488;-61
2023/04/18 10:13:18;;;;;;;9.88;6.20;;;;;;;;;;5005016;28;20042;-61
2023/04/18 10:15:44;;;;;;;9.63;6.30;;;;;;;;;;5004901;28;20417;-61
2023/04/18 10:18:16;;;;;;;13.15;6.90;;;;;;;;;;5004681;28;20038;-62
2023/04/18 10:20:43;;;;;;;11.75;6.50;;;;;;;;;;5005289;28;20042;-61
2023/04/18 10:23:29;;;;;;;15.18;7.15;;;;;;;;;;5005197;28;20124;-61
2023/04/18 10:25:55;;;;;;;14.40;7.07;;;;;;;;;;5004639;28;20480;-61
2023/04/18 10:28:23;;;;;;;8.82;6.13;;;;;;;;;;5005174;28;20084;-61
2023/04/18 10:30:50;;;;;;;11.53;6.50;;;;;;;;;;5004627;28;20085;-62
2023/04/18 10:33:21;;;;;;;14.93;6.57;;;;;;;;;;5004408;28;20053;-61
2023/04/18 10:36:00;;;;;;;9.32;5.80;;;;;;;;;;5005041;28;20076;-61
2023/04/18 10:38:27;;;;;;;9.20;5.68;;;;;;;;;;5005630;28;20522;-61
2023/04/18 10:40:53;;;;;;;10.40;6.53;;;;;;;;;;5004005;28;20591;-61
2023/04/18 10:43:19;;;;;;;11.35;6.03;;;;;;;;;;5004567;28;20099;-62
2023/04/18 10:46:05;;;;;;;10.02;6.13;;;;;;;;;;5004888;28;20053;-61
2023/04/18 10:48:33;;;;;;;10.80;6.10;;;;;;;;;;5003362;28;20042;-62
2023/04/18 10:51:13;;;;;;;9.27;5.70;;;;;;;;;;5004202;28;20050;-62
2023/04/18 10:53:48;;;;;;;8.70;5.10;;;;;;;;;;5003985;28;20068;-62
2023/04/18 10:56:15;;;;;;;8.43;5.70;;;;;;;;;;5004272;28;20034;-62
2023/04/18 10:58:41;;;;;;;8.40;5.15;;;;;;;;;;5004440;28;20050;-62
2023/04/18 11:01:08;;;;;;;9.52;5.47;;;;;;;;;;5004038;28;20188;-63
2023/04/18 11:03:35;;;;;;;11.20;6.30;;;;;;;;;;5002111;28;20050;-62
2023/04/18 11:06:02;;;;;;;11.48;6.22;;;;;;;;;;5003784;28;20038;-62
2023/04/18 11:08:28;;;;;;;9.45;5.80;;;;;;;;;;5004020;28;20050;-62
2023/04/18 11:10:57;;;;;;;11.13;5.80;;;;;;;;;;5004533;28;20805;-62
2023/04/18 11:13:23;;;;;;;7.25;5.25;;;;;;;;;;5004591;28;20074;-62
2023/04/18 11:15:49;;;;;;;11.10;6.32;;;;;;;;;;4993332;28;20050;-62
2023/04/18 11:18:16;;;;;;;10.88;5.95;;;;;;;;;;4991939;28;20172;-61
2023/04/18 11:20:48;;;;;;;12.50;5.85;;;;;;;;;;5003584;28;20042;-61
2023/04/18 11:23:16;;;;;;;10.30;6.38;;;;;;;;;;4992348;28;20046;-61
2023/04/18 11:25:43;;;;;;;12.00;5.88;;;;;;;;;;5003464;28;20049;-63
2023/04/18 11:28:15;;;;;;;13.88;5.40;;;;;;;;;;5003953;28;20045;-64
2023/04/18 11:30:42;;;;;;;10.38;6.25;;;;;;;;;;5003228;28;20053;-65
2023/04/18 11:33:09;;;;;;;10.60;6.80;;;;;;;;;;5001594;28;20487;-64
2023/04/18 11:35:36;;;;;;;13.80;6.82;;;;;;;;;;5003733;28;20078;-64
2023/04/18 11:38:02;;;;;;;17.67;7.38;;;;;;;;;;5004069;28;20500;-64
2023/04/18 11:40:29;;;;;;;10.13;6.65;;;;;;;;;;5004314;28;20539;-65
2023/04/18 11:42:55;;;;;;;10.80;6.53;;;;;;;;;;5003360;28;20069;-64
2023/04/18 11:45:21;;;;;;;10.75;6.93;;;;;;;;;;5003918;28;20041;-64
2023/04/18 11:47:47;;;;;;;12.75;7.30;;;;;;;;;;5003049;28;20096;-64
2023/04/18 11:50:14;;;;;;;11.10;6.90;;;;;;;;;;5003696;28;20068;-63
2023/04/18 11:52:41;;;;;;;12.25;7.07;;;;;;;;;;5003876;28;20612;-66
2023/04/18 11:55:16;;;;;;;12.57;7.40;;;;;;;;;;5004042;28;20128;-66
2023/04/18 11:57:42;;;;;;;13.07;7.97;;;;;;;;;;5003636;28;20096;-64
2023/04/18 12:00:11;;;;;;;11.40;7.72;;;;;;;;;;5003448;28;20098;-64
2023/04/18 12:02:37;;;;;;;;;;;;;;;;;;5003354;28;20129;-64
2023/04/18 12:05:03;;;;;;;13.18;7.30;;;;;;;;;;5004106;28;20012;-64
2023/04/18 12:07:31;;;;;;;15.75;7.05;;;;;;;;;;5003811;28;20037;-65
2023/04/18 12:09:58;;;;;;;12.32;7.20;;;;;;;;;;5004058;28;20045;-64
2023/04/18 12:12:24;;;;;;;12.10;7.63;;;;;;;;;;5003837;28;20050;-65
2023/04/18 12:14:58;;;;;;;14.30;7.80;;;;;;;;;;5003682;28;20057;-64
2023/04/18 12:17:26;;;;;;;13.38;7.70;;;;;;;;;;5007044;28;20046;-64
2023/04/18 12:19:52;;;;;;;14.57;7.30;;;;;;;;;;5007448;28;20077;-63
2023/04/18 12:22:19;;;;;;;11.48;7.53;;;;;;;;;;5007008;28;20165;-62
2023/04/18 12:24:45;;;;;;;13.07;7.85;;;;;;;;;;5001190;28;20419;-62
2023/04/18 12:27:11;;;;;;;14.20;7.68;;;;;;;;;;5007456;28;20084;-62
2023/04/18 12:29:38;;;;;;;13.52;8.43;;;;;;;;;;5006701;28;20041;-62
2023/04/18 12:32:05;;;;;;;15.63;8.85;;;;;;;;;;5006692;28;20053;-62
2023/04/18 12:34:31;;;;;;;13.80;8.27;;;;;;;;;;5007056;28;20081;-62
2023/04/18 12:36:57;;;;;;;16.17;8.70;;;;;;;;;;5006470;28;20129;-61
2023/04/18 12:39:24;;;;;;;13.98;8.93;;;;;;;;;;5007260;28;20414;-62
2023/04/18 12:41:50;;;;;;;21.67;9.10;;;;;;;;;;5006980;28;20041;-62
2023/04/18 12:44:17;;;;;;;14.10;8.63;;;;;;;;;;5006826;28;20056;-62
2023/04/18 12:46:43;;;;;;;14.02;8.75;;;;;;;;;;5005089;28;20713;-62
2023/04/18 12:49:09;;;;;;;15.10;8.60;;;;;;;;;;5005408;28;20140;-62
2023/04/18 12:51:35;;;;;;;19.48;8.20;;;;;;;;;;5006572;28;20099;-63
2023/04/18 12:54:01;;;;;;;12.98;8.38;;;;;;;;;;5006681;28;20412;-62
2023/04/18 12:56:27;;;;;;;12.23;8.27;;;;;;;;;;5006332;28;20513;-62
2023/04/18 12:58:54;;;;;;;14.10;8.77;;;;;;;;;;5002582;28;20132;-62
2023/04/18 13:01:20;;;;;;;14.40;9.30;;;;;;;;;;5006660;28;20069;-62
2023/04/18 13:03:46;;;;;;;15.15;9.05;;;;;;;;;;5005511;28;20046;-62
2023/04/18 13:06:12;;;;;;;13.45;8.35;;;;;;;;;;5006648;28;20511;-62
2023/04/18 13:08:38;;;;;;;15.27;7.88;;;;;;;;;;5006295;28;20539;-61
2023/04/18 13:11:04;;;;;;;12.18;7.90;;;;;;;;;;5005936;28;20087;-62
2023/04/18 13:13:31;;;;;;;12.80;7.30;;;;;;;;;;5006611;28;20050;-62
2023/04/18 13:15:57;;;;;;;10.95;7.07;;;;;;;;;;5005812;28;20385;-63
2023/04/18 13:18:23;;;;;;;10.38;7.18;;;;;;;;;;5005827;28;20060;-62
2023/04/18 13:20:49;;;;;;;13.93;7.35;;;;;;;;;;5006221;28;20053;-63
2023/04/18 13:23:15;;;;;;;15.98;7.15;;;;;;;;;;5006389;28;20131;-63
2023/04/18 13:25:41;;;;;;;14.18;8.57;;;;;;;;;;5006137;28;20081;-63
2023/04/18 13:28:07;;;;;;;10.18;7.18;;;;;;;;;;5005900;28;20046;-63
2023/04/18 13:30:34;;;;;;;11.15;6.55;;;;;;;;;;5006186;28;20046;-63
2023/04/18 13:33:00;;;;;;;11.32;6.88;;;;;;;;;;5005121;28;20042;-63
2023/04/18 13:35:26;;;;;;;10.35;6.78;;;;;;;;;;5006689;28;20060;-62
2023/04/18 13:37:52;;;;;;;10.82;6.30;;;;;;;;;;5005123;28;20472;-62
2023/04/18 13:40:19;;;;;;;15.57;6.80;;;;;;;;;;5005849;28;20049;-62
2023/04/18 13:42:45;;;;;;;14.38;6.63;;;;;;;;;;5005666;28;20492;-63
2023/04/18 13:45:11;;;;;;;14.52;6.00;;;;;;;;;;5005839;28;20566;-63
2023/04/18 13:47:38;;;;;;;8.05;5.68;;;;;;;;;;5003657;28;20074;-62
2023/04/18 13:50:04;;;;;;;7.28;5.68;;;;;;;;;;5005640;28;20166;-62
2023/04/18 13:52:30;;;;;;;7.78;4.50;;;;;;;;;;5005289;28;20046;-63
2023/04/18 13:54:56;;;;;;;8.80;5.07;;;;;;;;;;5005926;28;20069;-62
2023/04/18 13:57:23;;;;;;;7.28;4.60;;;;;;;;;;5005172;28;20052;-63
2023/04/18 13:59:49;;;;;;;6.15;4.30;;;;;;;;;;5005311;28;20785;-62
2023/04/18 14:02:15;;;;;;;6.10;3.42;;;;;;;;;;5004947;28;20518;-62
2023/04/18 14:04:41;;;;;;;6.25;3.40;;;;;;;;;;5004913;28;20172;-63
2023/04/18 14:07:07;;;;;;;4.75;2.90;;;;;;;;;;5005393;28;20038;-62
2023/04/18 14:09:34;;;;;;;4.40;3.30;;;;;;;;;;5005110;28;20418;-62
2023/04/18 14:12:00;;;;;;;7.20;3.35;;;;;;;;;;5004482;28;20049;-62
2023/04/18 14:14:27;;;;;;;6.88;3.45;;;;;;;;;;5005660;28;20124;-62
2023/04/18 14:16:53;;;;;;;5.78;4.47;;;;;;;;;;5004004;28;20042;-63
2023/04/18 14:19:19;;;;;;;7.47;4.30;;;;;;;;;;5005173;28;20050;-62
2023/04/18 14:21:46;;;;;;;7.75;4.93;;;;;;;;;;5004733;28;20038;-62
2023/04/18 14:24:13;;;;;;;8.63;4.30;;;;;;;;;;5003441;28;20046;-62
2023/04/18 14:26:39;;;;;;;5.40;4.20;;;;;;;;;;5005190;28;20042;-62
2023/04/18 14:29:05;;;;;;;5.90;4.05;;;;;;;;;;5005075;28;20122;-62
2023/04/18 14:31:31;;;;;;;6.90;4.43;;;;;;;;;;5004290;28;20046;-62